sensor_id;sensor_type;location;lat;lon;timestamp;P1;durP1;ratioP1;P2;durP2;ratioP2
51214;SDS011;63849;47.546;19.254;2023-12-20T00:01:01;66.97;;;34.75;;
51214;SDS011;63849;47.546;19.254;2023-12-20T00:03:26;72.03;;;33.78;;
51214;SDS011;63849;47.546;19.254;2023-12-20T00:05:52;74.03;;;33.28;;
51214;SDS011;63849;47.546;19.254;2023-12-20T00:08:18;67.78;;;32.25;;
51214;SDS011;63849;47.546;19.254;2023-12-20T00:10:44;73.50;;;32.97;;
51214;SDS011;63849;47.546;19.254;2023-12-20T00:13:10;103.50;;;34.75;;
51214;SDS011;63849;47.546;19.254;2023-12-20T00:15:35;72.93;;;34.17;;
51214;SDS011;63849;47.546;19.254;2023-12-20T00:18:01;80.53;;;35.40;;
51214;SDS011;63849;47.546;19.254;2023-12-20T00:20:27;71.13;;;34.95;;
51214;SDS011;63849;47.546;19.254;2023-12-20T00:22:57;87.35;;;34.90;;
51214;SDS011;63849;47.546;19.254;2023-12-20T00:25:23;100.40;;;34.17;;
51214;SDS011;63849;47.546;19.254;2023-12-20T00:27:49;69.90;;;33.78;;
51214;SDS011;63849;47.546;19.254;2023-12-20T00:30:18;80.00;;;33.05;;
51214;SDS011;63849;47.546;19.254;2023-12-20T00:32:44;67.50;;;32.53;;
51214;SDS011;63849;47.546;19.254;2023-12-20T00:35:15;76.07;;;34.92;;
51214;SDS011;63849;47.546;19.254;2023-12-20T00:37:41;83.57;;;37.05;;
51214;SDS011;63849;47.546;19.254;2023-12-20T00:40:10;71.55;;;37.13;;
51214;SDS011;63849;47.546;19.254;2023-12-20T00:42:36;79.38;;;37.55;;
51214;SDS011;63849;47.546;19.254;2023-12-20T00:45:02;74.72;;;38.80;;
51214;SDS011;63849;47.546;19.254;2023-12-20T00:47:30;71.28;;;35.67;;
51214;SDS011;63849;47.546;19.254;2023-12-20T00:49:56;72.43;;;36.30;;
51214;SDS011;63849;47.546;19.254;2023-12-20T00:52:22;78.05;;;38.75;;
51214;SDS011;63849;47.546;19.254;2023-12-20T00:54:48;77.47;;;37.97;;
51214;SDS011;63849;47.546;19.254;2023-12-20T00:57:14;84.45;;;39.40;;
51214;SDS011;63849;47.546;19.254;2023-12-20T00:59:40;75.68;;;38.83;;
51214;SDS011;63849;47.546;19.254;2023-12-20T01:02:06;78.80;;;38.17;;
51214;SDS011;63849;47.546;19.254;2023-12-20T01:04:31;78.38;;;38.50;;
51214;SDS011;63849;47.546;19.254;2023-12-20T01:06:57;85.53;;;40.75;;
51214;SDS011;63849;47.546;19.254;2023-12-20T01:09:23;79.97;;;39.78;;
51214;SDS011;63849;47.546;19.254;2023-12-20T01:11:51;80.53;;;39.80;;
51214;SDS011;63849;47.546;19.254;2023-12-20T01:14:18;89.20;;;39.00;;
51214;SDS011;63849;47.546;19.254;2023-12-20T01:16:43;80.68;;;40.28;;
51214;SDS011;63849;47.546;19.254;2023-12-20T01:19:09;76.50;;;38.17;;
51214;SDS011;63849;47.546;19.254;2023-12-20T01:21:35;76.53;;;39.15;;
51214;SDS011;63849;47.546;19.254;2023-12-20T01:24:00;80.18;;;37.47;;
51214;SDS011;63849;47.546;19.254;2023-12-20T01:26:26;71.40;;;36.15;;
51214;SDS011;63849;47.546;19.254;2023-12-20T01:28:52;71.63;;;35.60;;
51214;SDS011;63849;47.546;19.254;2023-12-20T01:31:18;74.93;;;34.15;;
51214;SDS011;63849;47.546;19.254;2023-12-20T01:33:44;102.40;;;37.90;;
51214;SDS011;63849;47.546;19.254;2023-12-20T01:36:10;71.57;;;35.80;;
51214;SDS011;63849;47.546;19.254;2023-12-20T01:38:36;71.95;;;36.05;;
51214;SDS011;63849;47.546;19.254;2023-12-20T01:41:02;79.10;;;35.13;;
51214;SDS011;63849;47.546;19.254;2023-12-20T01:43:29;74.35;;;33.40;;
51214;SDS011;63849;47.546;19.254;2023-12-20T01:45:55;68.95;;;33.88;;
51214;SDS011;63849;47.546;19.254;2023-12-20T01:48:23;79.85;;;36.83;;
51214;SDS011;63849;47.546;19.254;2023-12-20T01:50:50;69.60;;;36.05;;
51214;SDS011;63849;47.546;19.254;2023-12-20T01:53:17;73.18;;;38.80;;
51214;SDS011;63849;47.546;19.254;2023-12-20T01:55:45;95.18;;;39.00;;
51214;SDS011;63849;47.546;19.254;2023-12-20T01:58:14;83.55;;;40.45;;
51214;SDS011;63849;47.546;19.254;2023-12-20T02:00:40;81.93;;;42.72;;
51214;SDS011;63849;47.546;19.254;2023-12-20T02:03:06;78.38;;;41.88;;
51214;SDS011;63849;47.546;19.254;2023-12-20T02:05:32;74.88;;;40.25;;
51214;SDS011;63849;47.546;19.254;2023-12-20T02:07:58;103.90;;;45.50;;
51214;SDS011;63849;47.546;19.254;2023-12-20T02:10:24;85.63;;;45.67;;
51214;SDS011;63849;47.546;19.254;2023-12-20T02:12:51;83.07;;;44.50;;
51214;SDS011;63849;47.546;19.254;2023-12-20T02:15:16;82.35;;;45.40;;
51214;SDS011;63849;47.546;19.254;2023-12-20T02:17:42;95.80;;;47.05;;
51214;SDS011;63849;47.546;19.254;2023-12-20T02:20:10;88.95;;;47.47;;
51214;SDS011;63849;47.546;19.254;2023-12-20T02:22:36;90.65;;;45.72;;
51214;SDS011;63849;47.546;19.254;2023-12-20T02:25:01;91.05;;;45.97;;
51214;SDS011;63849;47.546;19.254;2023-12-20T02:27:27;85.90;;;43.88;;
51214;SDS011;63849;47.546;19.254;2023-12-20T02:29:54;87.50;;;44.28;;
51214;SDS011;63849;47.546;19.254;2023-12-20T02:32:20;82.55;;;42.50;;
51214;SDS011;63849;47.546;19.254;2023-12-20T02:34:48;83.65;;;42.03;;
51214;SDS011;63849;47.546;19.254;2023-12-20T02:37:14;85.60;;;43.15;;
51214;SDS011;63849;47.546;19.254;2023-12-20T02:39:40;81.78;;;42.28;;
51214;SDS011;63849;47.546;19.254;2023-12-20T02:42:06;78.15;;;43.60;;
51214;SDS011;63849;47.546;19.254;2023-12-20T02:44:31;71.25;;;40.33;;
51214;SDS011;63849;47.546;19.254;2023-12-20T02:46:57;78.03;;;42.05;;
51214;SDS011;63849;47.546;19.254;2023-12-20T02:49:23;81.40;;;41.40;;
51214;SDS011;63849;47.546;19.254;2023-12-20T02:51:49;76.47;;;39.95;;
51214;SDS011;63849;47.546;19.254;2023-12-20T02:54:14;79.28;;;41.97;;
51214;SDS011;63849;47.546;19.254;2023-12-20T02:56:40;75.50;;;40.63;;
51214;SDS011;63849;47.546;19.254;2023-12-20T02:59:06;75.03;;;40.15;;
51214;SDS011;63849;47.546;19.254;2023-12-20T03:01:33;89.20;;;40.50;;
51214;SDS011;63849;47.546;19.254;2023-12-20T03:04:00;83.85;;;41.20;;
51214;SDS011;63849;47.546;19.254;2023-12-20T03:06:26;81.88;;;37.80;;
51214;SDS011;63849;47.546;19.254;2023-12-20T03:08:51;83.32;;;39.33;;
51214;SDS011;63849;47.546;19.254;2023-12-20T03:11:17;70.53;;;35.45;;
51214;SDS011;63849;47.546;19.254;2023-12-20T03:13:43;68.88;;;36.38;;
51214;SDS011;63849;47.546;19.254;2023-12-20T03:16:12;75.03;;;37.78;;
51214;SDS011;63849;47.546;19.254;2023-12-20T03:18:39;75.35;;;37.30;;
51214;SDS011;63849;47.546;19.254;2023-12-20T03:21:05;64.68;;;34.10;;
51214;SDS011;63849;47.546;19.254;2023-12-20T03:23:31;73.40;;;36.00;;
51214;SDS011;63849;47.546;19.254;2023-12-20T03:25:59;67.88;;;35.25;;
51214;SDS011;63849;47.546;19.254;2023-12-20T03:28:26;70.25;;;34.83;;
51214;SDS011;63849;47.546;19.254;2023-12-20T03:30:51;77.15;;;36.42;;
51214;SDS011;63849;47.546;19.254;2023-12-20T03:33:17;69.95;;;34.50;;
51214;SDS011;63849;47.546;19.254;2023-12-20T03:35:43;68.97;;;34.28;;
51214;SDS011;63849;47.546;19.254;2023-12-20T03:38:08;87.57;;;34.03;;
51214;SDS011;63849;47.546;19.254;2023-12-20T03:40:34;65.22;;;32.67;;
51214;SDS011;63849;47.546;19.254;2023-12-20T03:43:00;74.95;;;35.00;;
51214;SDS011;63849;47.546;19.254;2023-12-20T03:45:26;69.63;;;32.80;;
51214;SDS011;63849;47.546;19.254;2023-12-20T03:47:52;73.82;;;31.83;;
51214;SDS011;63849;47.546;19.254;2023-12-20T03:50:25;74.65;;;36.85;;
51214;SDS011;63849;47.546;19.254;2023-12-20T03:52:51;72.05;;;34.83;;
51214;SDS011;63849;47.546;19.254;2023-12-20T03:55:17;78.55;;;39.35;;
51214;SDS011;63849;47.546;19.254;2023-12-20T03:57:43;79.90;;;38.78;;
51214;SDS011;63849;47.546;19.254;2023-12-20T04:00:09;84.38;;;39.55;;
51214;SDS011;63849;47.546;19.254;2023-12-20T04:02:38;88.25;;;40.22;;
51214;SDS011;63849;47.546;19.254;2023-12-20T04:05:05;74.95;;;38.97;;
51214;SDS011;63849;47.546;19.254;2023-12-20T04:07:31;77.10;;;38.50;;
51214;SDS011;63849;47.546;19.254;2023-12-20T04:09:57;87.93;;;40.42;;
51214;SDS011;63849;47.546;19.254;2023-12-20T04:12:22;80.32;;;37.45;;
51214;SDS011;63849;47.546;19.254;2023-12-20T04:14:48;78.88;;;38.75;;
51214;SDS011;63849;47.546;19.254;2023-12-20T04:17:17;84.43;;;39.75;;
51214;SDS011;63849;47.546;19.254;2023-12-20T04:19:43;84.65;;;40.70;;
51214;SDS011;63849;47.546;19.254;2023-12-20T04:22:09;77.80;;;40.78;;
51214;SDS011;63849;47.546;19.254;2023-12-20T04:24:34;98.25;;;41.40;;
51214;SDS011;63849;47.546;19.254;2023-12-20T04:27:01;95.85;;;43.70;;
51214;SDS011;63849;47.546;19.254;2023-12-20T04:29:26;84.97;;;42.38;;
51214;SDS011;63849;47.546;19.254;2023-12-20T04:31:52;89.90;;;41.78;;
51214;SDS011;63849;47.546;19.254;2023-12-20T04:34:18;85.53;;;41.47;;
51214;SDS011;63849;47.546;19.254;2023-12-20T04:36:44;84.50;;;38.35;;
51214;SDS011;63849;47.546;19.254;2023-12-20T04:39:11;75.28;;;36.38;;
51214;SDS011;63849;47.546;19.254;2023-12-20T04:41:38;80.00;;;37.25;;
51214;SDS011;63849;47.546;19.254;2023-12-20T04:44:04;74.68;;;37.30;;
51214;SDS011;63849;47.546;19.254;2023-12-20T04:46:31;68.18;;;33.78;;
51214;SDS011;63849;47.546;19.254;2023-12-20T04:48:57;68.22;;;33.65;;
51214;SDS011;63849;47.546;19.254;2023-12-20T04:51:22;62.05;;;32.30;;
51214;SDS011;63849;47.546;19.254;2023-12-20T04:53:48;57.08;;;30.38;;
51214;SDS011;63849;47.546;19.254;2023-12-20T04:56:14;59.53;;;30.55;;
51214;SDS011;63849;47.546;19.254;2023-12-20T04:58:39;64.45;;;32.88;;
51214;SDS011;63849;47.546;19.254;2023-12-20T05:01:05;64.43;;;31.08;;
51214;SDS011;63849;47.546;19.254;2023-12-20T05:03:32;55.90;;;29.38;;
51214;SDS011;63849;47.546;19.254;2023-12-20T05:05:58;57.58;;;31.70;;
51214;SDS011;63849;47.546;19.254;2023-12-20T05:08:23;60.55;;;30.05;;
51214;SDS011;63849;47.546;19.254;2023-12-20T05:10:50;63.75;;;30.58;;
51214;SDS011;63849;47.546;19.254;2023-12-20T05:13:19;58.95;;;29.08;;
51214;SDS011;63849;47.546;19.254;2023-12-20T05:15:45;55.50;;;28.38;;
51214;SDS011;63849;47.546;19.254;2023-12-20T05:18:11;61.53;;;29.77;;
51214;SDS011;63849;47.546;19.254;2023-12-20T05:20:39;61.10;;;30.02;;
51214;SDS011;63849;47.546;19.254;2023-12-20T05:23:05;59.80;;;30.27;;
51214;SDS011;63849;47.546;19.254;2023-12-20T05:25:31;70.70;;;31.13;;
51214;SDS011;63849;47.546;19.254;2023-12-20T05:27:56;60.15;;;30.27;;
51214;SDS011;63849;47.546;19.254;2023-12-20T05:30:22;55.35;;;28.30;;
51214;SDS011;63849;47.546;19.254;2023-12-20T05:32:48;58.30;;;29.92;;
51214;SDS011;63849;47.546;19.254;2023-12-20T05:35:13;54.72;;;29.90;;
51214;SDS011;63849;47.546;19.254;2023-12-20T05:37:40;56.88;;;29.20;;
51214;SDS011;63849;47.546;19.254;2023-12-20T05:40:06;56.85;;;29.58;;
51214;SDS011;63849;47.546;19.254;2023-12-20T05:42:35;55.17;;;29.08;;
51214;SDS011;63849;47.546;19.254;2023-12-20T05:45:01;57.67;;;31.42;;
51214;SDS011;63849;47.546;19.254;2023-12-20T05:47:27;63.13;;;31.83;;
51214;SDS011;63849;47.546;19.254;2023-12-20T05:49:53;68.50;;;32.67;;
51214;SDS011;63849;47.546;19.254;2023-12-20T05:52:18;69.40;;;33.17;;
51214;SDS011;63849;47.546;19.254;2023-12-20T05:54:44;84.20;;;36.50;;
51214;SDS011;63849;47.546;19.254;2023-12-20T05:57:10;79.05;;;36.00;;
51214;SDS011;63849;47.546;19.254;2023-12-20T05:59:36;80.65;;;35.47;;
51214;SDS011;63849;47.546;19.254;2023-12-20T06:02:02;76.38;;;35.92;;
51214;SDS011;63849;47.546;19.254;2023-12-20T06:04:29;74.78;;;36.80;;
51214;SDS011;63849;47.546;19.254;2023-12-20T06:06:55;68.20;;;34.03;;
51214;SDS011;63849;47.546;19.254;2023-12-20T06:09:21;67.75;;;33.40;;
51214;SDS011;63849;47.546;19.254;2023-12-20T06:11:47;65.05;;;30.58;;
51214;SDS011;63849;47.546;19.254;2023-12-20T06:14:12;61.50;;;31.67;;
51214;SDS011;63849;47.546;19.254;2023-12-20T06:16:38;79.03;;;29.17;;
51214;SDS011;63849;47.546;19.254;2023-12-20T06:19:04;64.07;;;30.05;;
51214;SDS011;63849;47.546;19.254;2023-12-20T06:21:29;63.20;;;29.92;;
51214;SDS011;63849;47.546;19.254;2023-12-20T06:23:55;58.25;;;31.73;;
51214;SDS011;63849;47.546;19.254;2023-12-20T06:26:21;61.55;;;30.88;;
51214;SDS011;63849;47.546;19.254;2023-12-20T06:28:46;71.72;;;31.63;;
51214;SDS011;63849;47.546;19.254;2023-12-20T06:31:12;71.50;;;32.25;;
51214;SDS011;63849;47.546;19.254;2023-12-20T06:33:38;62.63;;;30.77;;
51214;SDS011;63849;47.546;19.254;2023-12-20T06:36:06;60.13;;;30.95;;
51214;SDS011;63849;47.546;19.254;2023-12-20T06:38:32;60.75;;;30.52;;
51214;SDS011;63849;47.546;19.254;2023-12-20T06:40:57;70.32;;;32.25;;
51214;SDS011;63849;47.546;19.254;2023-12-20T06:43:23;65.30;;;31.52;;
51214;SDS011;63849;47.546;19.254;2023-12-20T06:45:49;51.53;;;27.05;;
51214;SDS011;63849;47.546;19.254;2023-12-20T06:48:16;59.35;;;29.52;;
51214;SDS011;63849;47.546;19.254;2023-12-20T06:50:41;58.95;;;30.65;;
51214;SDS011;63849;47.546;19.254;2023-12-20T06:53:07;66.43;;;32.70;;
51214;SDS011;63849;47.546;19.254;2023-12-20T06:55:34;70.05;;;31.33;;
51214;SDS011;63849;47.546;19.254;2023-12-20T06:58:01;59.35;;;30.15;;
51214;SDS011;63849;47.546;19.254;2023-12-20T07:00:27;68.60;;;34.42;;
51214;SDS011;63849;47.546;19.254;2023-12-20T07:02:53;80.43;;;40.28;;
51214;SDS011;63849;47.546;19.254;2023-12-20T07:05:19;98.95;;;52.83;;
51214;SDS011;63849;47.546;19.254;2023-12-20T07:07:45;94.32;;;47.28;;
51214;SDS011;63849;47.546;19.254;2023-12-20T07:10:12;113.70;;;55.83;;
51214;SDS011;63849;47.546;19.254;2023-12-20T07:12:38;107.18;;;57.90;;
51214;SDS011;63849;47.546;19.254;2023-12-20T07:15:04;113.47;;;55.33;;
51214;SDS011;63849;47.546;19.254;2023-12-20T07:17:31;99.32;;;45.40;;
51214;SDS011;63849;47.546;19.254;2023-12-20T07:19:58;94.43;;;47.22;;
51214;SDS011;63849;47.546;19.254;2023-12-20T07:22:24;99.28;;;46.38;;
51214;SDS011;63849;47.546;19.254;2023-12-20T07:24:49;85.63;;;44.42;;
51214;SDS011;63849;47.546;19.254;2023-12-20T07:27:17;91.90;;;38.65;;
51214;SDS011;63849;47.546;19.254;2023-12-20T07:29:42;67.93;;;37.55;;
51214;SDS011;63849;47.546;19.254;2023-12-20T07:32:08;92.38;;;41.53;;
51214;SDS011;63849;47.546;19.254;2023-12-20T07:34:34;89.95;;;42.58;;
51214;SDS011;63849;47.546;19.254;2023-12-20T07:36:59;81.60;;;38.80;;
51214;SDS011;63849;47.546;19.254;2023-12-20T07:39:25;91.38;;;38.20;;
51214;SDS011;63849;47.546;19.254;2023-12-20T07:41:51;79.45;;;38.70;;
51214;SDS011;63849;47.546;19.254;2023-12-20T07:44:16;78.57;;;37.85;;
51214;SDS011;63849;47.546;19.254;2023-12-20T07:46:42;71.43;;;38.97;;
51214;SDS011;63849;47.546;19.254;2023-12-20T07:49:08;74.72;;;38.20;;
51214;SDS011;63849;47.546;19.254;2023-12-20T07:51:35;82.43;;;39.80;;
51214;SDS011;63849;47.546;19.254;2023-12-20T07:54:00;76.78;;;38.63;;
51214;SDS011;63849;47.546;19.254;2023-12-20T07:56:26;95.05;;;40.10;;
51214;SDS011;63849;47.546;19.254;2023-12-20T07:58:52;70.22;;;37.80;;
51214;SDS011;63849;47.546;19.254;2023-12-20T08:01:17;70.75;;;35.53;;
51214;SDS011;63849;47.546;19.254;2023-12-20T08:03:43;71.53;;;38.72;;
51214;SDS011;63849;47.546;19.254;2023-12-20T08:06:09;79.60;;;38.35;;
51214;SDS011;63849;47.546;19.254;2023-12-20T08:08:35;92.68;;;39.28;;
51214;SDS011;63849;47.546;19.254;2023-12-20T08:11:00;75.55;;;38.17;;
51214;SDS011;63849;47.546;19.254;2023-12-20T08:13:27;74.95;;;38.20;;
51214;SDS011;63849;47.546;19.254;2023-12-20T08:15:53;81.47;;;39.80;;
51214;SDS011;63849;47.546;19.254;2023-12-20T08:18:20;77.53;;;38.65;;
51214;SDS011;63849;47.546;19.254;2023-12-20T08:20:46;82.35;;;38.58;;
51214;SDS011;63849;47.546;19.254;2023-12-20T08:23:13;67.07;;;33.97;;
51214;SDS011;63849;47.546;19.254;2023-12-20T08:25:39;64.40;;;33.42;;
51214;SDS011;63849;47.546;19.254;2023-12-20T08:28:05;64.95;;;35.17;;
51214;SDS011;63849;47.546;19.254;2023-12-20T08:30:30;71.90;;;34.17;;
51214;SDS011;63849;47.546;19.254;2023-12-20T08:32:59;65.13;;;33.92;;
51214;SDS011;63849;47.546;19.254;2023-12-20T08:35:25;64.47;;;33.85;;
51214;SDS011;63849;47.546;19.254;2023-12-20T08:37:51;60.58;;;32.42;;
51214;SDS011;63849;47.546;19.254;2023-12-20T08:40:17;71.70;;;35.75;;
51214;SDS011;63849;47.546;19.254;2023-12-20T08:42:43;68.65;;;33.95;;
51214;SDS011;63849;47.546;19.254;2023-12-20T08:45:09;64.85;;;33.65;;
51214;SDS011;63849;47.546;19.254;2023-12-20T08:47:35;72.30;;;34.78;;
51214;SDS011;63849;47.546;19.254;2023-12-20T08:50:01;63.05;;;35.08;;
51214;SDS011;63849;47.546;19.254;2023-12-20T08:52:28;60.75;;;32.88;;
51214;SDS011;63849;47.546;19.254;2023-12-20T08:54:54;66.57;;;34.42;;
51214;SDS011;63849;47.546;19.254;2023-12-20T08:57:20;63.17;;;34.63;;
51214;SDS011;63849;47.546;19.254;2023-12-20T08:59:46;69.47;;;35.70;;
51214;SDS011;63849;47.546;19.254;2023-12-20T09:02:13;72.38;;;35.88;;
51214;SDS011;63849;47.546;19.254;2023-12-20T09:04:39;70.18;;;34.97;;
51214;SDS011;63849;47.546;19.254;2023-12-20T09:07:05;65.95;;;35.00;;
51214;SDS011;63849;47.546;19.254;2023-12-20T09:09:31;67.47;;;35.38;;
51214;SDS011;63849;47.546;19.254;2023-12-20T09:11:59;63.15;;;33.25;;
51214;SDS011;63849;47.546;19.254;2023-12-20T09:14:25;73.28;;;37.60;;
51214;SDS011;63849;47.546;19.254;2023-12-20T09:16:51;91.97;;;41.35;;
51214;SDS011;63849;47.546;19.254;2023-12-20T09:19:18;67.80;;;36.53;;
51214;SDS011;63849;47.546;19.254;2023-12-20T09:21:44;61.55;;;32.05;;
51214;SDS011;63849;47.546;19.254;2023-12-20T09:24:10;63.65;;;34.70;;
51214;SDS011;63849;47.546;19.254;2023-12-20T09:26:36;61.88;;;33.00;;
51214;SDS011;63849;47.546;19.254;2023-12-20T09:29:02;70.70;;;31.67;;
51214;SDS011;63849;47.546;19.254;2023-12-20T09:31:27;60.70;;;31.73;;
51214;SDS011;63849;47.546;19.254;2023-12-20T09:33:53;63.15;;;33.10;;
51214;SDS011;63849;47.546;19.254;2023-12-20T09:36:19;82.47;;;39.97;;
51214;SDS011;63849;47.546;19.254;2023-12-20T09:38:44;86.78;;;42.38;;
51214;SDS011;63849;47.546;19.254;2023-12-20T09:41:10;82.53;;;41.97;;
51214;SDS011;63849;47.546;19.254;2023-12-20T09:43:37;82.90;;;42.72;;
51214;SDS011;63849;47.546;19.254;2023-12-20T09:46:05;81.82;;;42.95;;
51214;SDS011;63849;47.546;19.254;2023-12-20T09:48:35;95.00;;;48.25;;
51214;SDS011;63849;47.546;19.254;2023-12-20T09:51:02;89.60;;;45.70;;
51214;SDS011;63849;47.546;19.254;2023-12-20T09:53:27;91.18;;;49.50;;
51214;SDS011;63849;47.546;19.254;2023-12-20T09:55:58;88.65;;;47.67;;
51214;SDS011;63849;47.546;19.254;2023-12-20T09:58:25;89.32;;;47.05;;
51214;SDS011;63849;47.546;19.254;2023-12-20T10:00:51;93.38;;;45.78;;
51214;SDS011;63849;47.546;19.254;2023-12-20T10:03:20;94.78;;;48.53;;
51214;SDS011;63849;47.546;19.254;2023-12-20T10:05:51;94.32;;;48.13;;
51214;SDS011;63849;47.546;19.254;2023-12-20T10:08:21;80.65;;;40.60;;
51214;SDS011;63849;47.546;19.254;2023-12-20T10:10:47;90.15;;;45.25;;
51214;SDS011;63849;47.546;19.254;2023-12-20T10:13:13;100.85;;;52.30;;
51214;SDS011;63849;47.546;19.254;2023-12-20T10:15:40;122.05;;;58.13;;
51214;SDS011;63849;47.546;19.254;2023-12-20T10:18:06;148.85;;;65.95;;
51214;SDS011;63849;47.546;19.254;2023-12-20T10:20:32;103.75;;;50.10;;
51214;SDS011;63849;47.546;19.254;2023-12-20T10:22:58;90.60;;;47.67;;
51214;SDS011;63849;47.546;19.254;2023-12-20T10:25:25;86.25;;;43.65;;
51214;SDS011;63849;47.546;19.254;2023-12-20T10:28:08;83.05;;;41.83;;
51214;SDS011;63849;47.546;19.254;2023-12-20T10:30:35;109.53;;;57.47;;
51214;SDS011;63849;47.546;19.254;2023-12-20T10:33:01;117.60;;;62.33;;
51214;SDS011;63849;47.546;19.254;2023-12-20T10:35:27;99.25;;;59.25;;
51214;SDS011;63849;47.546;19.254;2023-12-20T10:37:54;89.40;;;47.65;;
51214;SDS011;63849;47.546;19.254;2023-12-20T10:40:21;90.90;;;51.28;;
51214;SDS011;63849;47.546;19.254;2023-12-20T10:42:48;77.43;;;45.13;;
51214;SDS011;63849;47.546;19.254;2023-12-20T10:45:14;77.22;;;41.97;;
51214;SDS011;63849;47.546;19.254;2023-12-20T10:47:42;83.22;;;46.22;;
51214;SDS011;63849;47.546;19.254;2023-12-20T10:50:11;76.05;;;42.53;;
51214;SDS011;63849;47.546;19.254;2023-12-20T10:52:37;73.18;;;42.22;;
51214;SDS011;63849;47.546;19.254;2023-12-20T10:55:04;70.63;;;40.10;;
51214;SDS011;63849;47.546;19.254;2023-12-20T10:57:30;66.40;;;38.33;;
51214;SDS011;63849;47.546;19.254;2023-12-20T10:59:56;67.78;;;40.28;;
51214;SDS011;63849;47.546;19.254;2023-12-20T11:02:29;72.55;;;40.38;;
51214;SDS011;63849;47.546;19.254;2023-12-20T11:05:03;76.55;;;41.83;;
51214;SDS011;63849;47.546;19.254;2023-12-20T11:07:49;69.13;;;37.72;;
51214;SDS011;63849;47.546;19.254;2023-12-20T11:10:23;61.75;;;35.78;;
51214;SDS011;63849;47.546;19.254;2023-12-20T11:12:54;59.42;;;37.10;;
51214;SDS011;63849;47.546;19.254;2023-12-20T11:15:35;61.67;;;36.70;;
51214;SDS011;63849;47.546;19.254;2023-12-20T11:18:01;62.95;;;38.38;;
51214;SDS011;63849;47.546;19.254;2023-12-20T11:20:39;69.53;;;41.00;;
51214;SDS011;63849;47.546;19.254;2023-12-20T11:23:06;72.75;;;41.90;;
51214;SDS011;63849;47.546;19.254;2023-12-20T11:28:33;71.20;;;42.08;;
51214;SDS011;63849;47.546;19.254;2023-12-20T11:33:38;65.43;;;38.58;;
51214;SDS011;63849;47.546;19.254;2023-12-20T11:36:12;63.10;;;36.67;;
51214;SDS011;63849;47.546;19.254;2023-12-20T11:38:38;61.65;;;37.95;;
51214;SDS011;63849;47.546;19.254;2023-12-20T11:41:14;64.70;;;40.03;;
51214;SDS011;63849;47.546;19.254;2023-12-20T11:43:41;70.32;;;41.30;;
51214;SDS011;63849;47.546;19.254;2023-12-20T11:46:07;72.95;;;44.72;;
51214;SDS011;63849;47.546;19.254;2023-12-20T11:48:35;66.68;;;40.75;;
51214;SDS011;63849;47.546;19.254;2023-12-20T11:51:02;61.25;;;37.97;;
51214;SDS011;63849;47.546;19.254;2023-12-20T11:53:35;72.70;;;44.15;;
51214;SDS011;63849;47.546;19.254;2023-12-20T11:56:02;72.80;;;42.42;;
51214;SDS011;63849;47.546;19.254;2023-12-20T11:58:28;73.55;;;43.13;;
51214;SDS011;63849;47.546;19.254;2023-12-20T12:00:54;88.07;;;52.05;;
51214;SDS011;63849;47.546;19.254;2023-12-20T12:03:20;76.40;;;45.17;;
51214;SDS011;63849;47.546;19.254;2023-12-20T12:05:49;75.95;;;45.45;;
51214;SDS011;63849;47.546;19.254;2023-12-20T12:08:15;78.63;;;45.83;;
51214;SDS011;63849;47.546;19.254;2023-12-20T12:10:42;76.05;;;45.55;;
51214;SDS011;63849;47.546;19.254;2023-12-20T12:13:11;83.05;;;46.47;;
51214;SDS011;63849;47.546;19.254;2023-12-20T12:15:37;83.45;;;48.72;;
51214;SDS011;63849;47.546;19.254;2023-12-20T12:18:03;87.35;;;47.72;;
51214;SDS011;63849;47.546;19.254;2023-12-20T12:20:30;79.82;;;46.08;;
51214;SDS011;63849;47.546;19.254;2023-12-20T12:25:25;68.03;;;41.08;;
51214;SDS011;63849;47.546;19.254;2023-12-20T12:27:52;76.18;;;46.05;;
51214;SDS011;63849;47.546;19.254;2023-12-20T12:30:18;74.75;;;42.92;;
51214;SDS011;63849;47.546;19.254;2023-12-20T12:32:43;70.15;;;43.33;;
51214;SDS011;63849;47.546;19.254;2023-12-20T12:35:09;73.82;;;41.97;;
51214;SDS011;63849;47.546;19.254;2023-12-20T12:37:37;75.10;;;42.45;;
51214;SDS011;63849;47.546;19.254;2023-12-20T12:40:14;79.75;;;43.60;;
51214;SDS011;63849;47.546;19.254;2023-12-20T12:42:40;75.63;;;44.63;;
51214;SDS011;63849;47.546;19.254;2023-12-20T12:45:07;143.63;;;79.75;;
51214;SDS011;63849;47.546;19.254;2023-12-20T12:47:34;93.65;;;55.42;;
51214;SDS011;63849;47.546;19.254;2023-12-20T12:50:00;58.78;;;38.67;;
51214;SDS011;63849;47.546;19.254;2023-12-20T12:52:26;44.30;;;29.13;;
51214;SDS011;63849;47.546;19.254;2023-12-20T12:54:52;52.65;;;30.95;;
51214;SDS011;63849;47.546;19.254;2023-12-20T12:57:18;35.67;;;24.55;;
51214;SDS011;63849;47.546;19.254;2023-12-20T12:59:44;52.40;;;30.52;;
51214;SDS011;63849;47.546;19.254;2023-12-20T13:02:11;53.22;;;29.45;;
51214;SDS011;63849;47.546;19.254;2023-12-20T13:04:38;46.70;;;27.15;;
51214;SDS011;63849;47.546;19.254;2023-12-20T13:07:05;37.65;;;22.60;;
51214;SDS011;63849;47.546;19.254;2023-12-20T13:09:31;30.63;;;20.30;;
51214;SDS011;63849;47.546;19.254;2023-12-20T13:11:56;30.40;;;19.80;;
51214;SDS011;63849;47.546;19.254;2023-12-20T13:14:22;28.85;;;19.42;;
51214;SDS011;63849;47.546;19.254;2023-12-20T13:16:48;28.60;;;19.90;;
51214;SDS011;63849;47.546;19.254;2023-12-20T13:19:13;27.83;;;20.65;;
51214;SDS011;63849;47.546;19.254;2023-12-20T13:21:39;28.80;;;17.73;;
51214;SDS011;63849;47.546;19.254;2023-12-20T13:24:05;26.77;;;18.92;;
51214;SDS011;63849;47.546;19.254;2023-12-20T13:26:31;31.92;;;20.50;;
51214;SDS011;63849;47.546;19.254;2023-12-20T13:28:57;29.88;;;19.77;;
51214;SDS011;63849;47.546;19.254;2023-12-20T13:31:24;30.63;;;19.10;;
51214;SDS011;63849;47.546;19.254;2023-12-20T13:33:49;23.05;;;16.02;;
51214;SDS011;63849;47.546;19.254;2023-12-20T13:36:17;20.48;;;14.63;;
51214;SDS011;63849;47.546;19.254;2023-12-20T13:38:43;37.22;;;23.10;;
51214;SDS011;63849;47.546;19.254;2023-12-20T13:41:09;29.35;;;16.90;;
51214;SDS011;63849;47.546;19.254;2023-12-20T13:43:35;28.02;;;16.73;;
51214;SDS011;63849;47.546;19.254;2023-12-20T23:01:10;86.35;;;60.13;;
51214;SDS011;63849;47.546;19.254;2023-12-20T23:03:36;64.60;;;46.22;;
51214;SDS011;63849;47.546;19.254;2023-12-20T23:06:05;51.03;;;34.78;;
51214;SDS011;63849;47.546;19.254;2023-12-20T23:08:32;37.15;;;26.55;;
51214;SDS011;63849;47.546;19.254;2023-12-20T23:11:05;48.08;;;31.40;;
51214;SDS011;63849;47.546;19.254;2023-12-20T23:13:31;45.40;;;29.48;;
51214;SDS011;63849;47.546;19.254;2023-12-20T23:15:57;45.58;;;30.77;;
51214;SDS011;63849;47.546;19.254;2023-12-20T23:18:23;53.50;;;32.65;;
51214;SDS011;63849;47.546;19.254;2023-12-20T23:20:49;57.45;;;33.38;;
51214;SDS011;63849;47.546;19.254;2023-12-20T23:23:15;40.08;;;25.13;;
51214;SDS011;63849;47.546;19.254;2023-12-20T23:25:43;34.65;;;22.35;;
51214;SDS011;63849;47.546;19.254;2023-12-20T23:28:09;55.60;;;33.65;;